createdAt,value
2023-04-18T00:00:10.313Z,94.02
2023-04-18T00:01:10.301Z,94.06
2023-04-18T00:02:10.304Z,93.85
2023-04-18T00:03:10.556Z,93.75
2023-04-18T00:04:10.640Z,93.85
2023-04-18T00:05:10.293Z,93.75
2023-04-18T00:06:10.261Z,94.27
2023-04-18T00:07:10.211Z,94.57
2023-04-18T00:08:10.210Z,94.47
2023-04-18T00:09:10.216Z,94.06
2023-04-18T00:10:10.178Z,94.06
2023-04-18T00:11:10.188Z,94.27
2023-04-18T00:12:10.215Z,94.17
2023-04-18T00:13:10.142Z,93.96
2023-04-18T00:14:10.136Z,93.85
2023-04-18T00:15:10.134Z,93.85
2023-04-18T00:16:10.129Z,93.96
2023-04-18T00:17:10.187Z,94.17
2023-04-18T00:18:10.166Z,94.37
2023-04-18T00:19:10.090Z,94.47
2023-04-18T00:20:10.093Z,94.47
2023-04-18T00:21:10.088Z,94.47
2023-04-18T00:22:10.054Z,94.78
2023-04-18T00:23:11.534Z,94.57
2023-04-18T00:24:10.042Z,94.57
2023-04-18T00:25:10.030Z,94.68
2023-04-18T00:26:10.044Z,94.89
2023-04-18T00:27:10.027Z,94.89
2023-04-18T00:28:10.001Z,94.68
2023-04-18T00:29:09.983Z,94.68
2023-04-18T00:30:09.983Z,94.89
2023-04-18T00:31:09.980Z,95.09
2023-04-18T00:32:09.957Z,95.20
2023-04-18T00:33:10.034Z,94.99
2023-04-18T00:34:09.933Z,94.68
2023-04-18T00:35:09.961Z,94.27
2023-04-18T00:36:09.944Z,93.96
2023-04-18T00:37:09.935Z,93.85
2023-04-18T00:38:09.885Z,93.65
2023-04-18T00:39:09.866Z,93.54
2023-04-18T00:40:09.896Z,93.34
2023-04-18T00:41:09.851Z,93.34
2023-04-18T00:42:09.858Z,93.24
2023-04-18T00:43:09.853Z,93.54
2023-04-18T00:44:09.817Z,93.75
2023-04-18T00:45:09.866Z,93.54
2023-04-18T00:46:09.935Z,93.54
2023-04-18T00:47:09.782Z,93.44
2023-04-18T00:48:09.817Z,93.44
2023-04-18T00:49:09.765Z,93.65
2023-04-18T00:50:09.801Z,93.54
2023-04-18T00:51:09.755Z,93.34
2023-04-18T00:52:09.740Z,93.34
2023-04-18T00:53:09.729Z,93.44
2023-04-18T00:54:09.711Z,93.34
2023-04-18T00:55:09.711Z,93.24
2023-04-18T00:56:09.708Z,93.44
2023-04-18T00:57:09.683Z,93.54
2023-04-18T00:58:09.715Z,93.65
2023-04-18T00:59:09.660Z,93.54
2023-04-18T01:00:09.690Z,93.54
2023-04-18T01:01:09.664Z,93.85
2023-04-18T01:02:09.665Z,93.85
2023-04-18T01:03:09.684Z,93.75
2023-04-18T01:04:09.779Z,93.54
2023-04-18T01:05:09.683Z,93.54
2023-04-18T01:06:09.645Z,93.24
2023-04-18T01:07:09.583Z,93.44
2023-04-18T01:08:09.580Z,93.65
2023-04-18T01:09:09.564Z,93.96
2023-04-18T01:10:09.586Z,94.27
2023-04-18T01:11:09.533Z,94.37
2023-04-18T01:12:09.533Z,94.27
2023-04-18T01:13:09.535Z,94.37
2023-04-18T01:14:09.540Z,93.96
2023-04-18T01:15:09.505Z,93.96
2023-04-18T01:16:09.529Z,94.06
2023-04-18T01:17:09.464Z,94.27
2023-04-18T01:18:09.547Z,94.17
2023-04-18T01:19:09.531Z,94.06
2023-04-18T01:20:09.449Z,94.17
2023-04-18T01:21:09.429Z,94.78
2023-04-18T01:22:09.421Z,94.89
2023-04-18T01:23:09.458Z,94.57
2023-04-18T01:24:09.438Z,94.47
2023-04-18T01:25:09.401Z,94.89
2023-04-18T01:26:09.373Z,94.99
2023-04-18T01:27:09.429Z,94.89
2023-04-18T01:28:09.434Z,94.62
2023-04-18T01:29:09.352Z,95.09
2023-04-18T01:30:09.383Z,95.03
2023-04-18T01:31:09.358Z,95.14
2023-04-18T01:32:09.353Z,95.03
2023-04-18T01:33:09.314Z,95.03
2023-04-18T01:34:09.314Z,95.24
2023-04-18T01:35:09.283Z,95.34
2023-04-18T01:36:09.262Z,95.34
2023-04-18T01:37:09.326Z,95.24
2023-04-18T01:38:09.272Z,95.24
2023-04-18T01:39:09.262Z,95.34
2023-04-18T01:40:09.320Z,95.45
2023-04-18T01:41:09.231Z,95.45
2023-04-18T01:42:09.240Z,95.34
2023-04-18T01:43:09.198Z,94.82
2023-04-18T01:44:09.209Z,94.72
2023-04-18T01:45:09.195Z,94.42
2023-04-18T01:46:09.198Z,94.42
2023-04-18T01:47:09.145Z,94.72
2023-04-18T01:48:09.192Z,94.82
2023-04-18T01:49:09.130Z,95.03
2023-04-18T01:50:09.159Z,95.24
2023-04-18T01:51:09.112Z,95.14
2023-04-18T01:52:09.117Z,94.93
2023-04-18T01:53:09.080Z,94.82
2023-04-18T01:54:09.124Z,94.31
2023-04-18T01:55:09.083Z,94.31
2023-04-18T01:56:09.074Z,94.97
2023-04-18T01:57:09.078Z,94.97
2023-04-18T01:58:09.052Z,94.77
2023-04-18T01:59:09.035Z,94.67
2023-04-18T02:00:09.056Z,94.67
2023-04-18T02:01:09.045Z,94.77
2023-04-18T02:02:09.045Z,95.18
2023-04-18T02:03:09.140Z,95.39
2023-04-18T02:04:09.072Z,95.49
2023-04-18T02:05:08.996Z,95.39
2023-04-18T02:06:08.955Z,95.07
2023-04-18T02:07:08.945Z,94.97
2023-04-18T02:08:08.944Z,94.87
2023-04-18T02:09:08.940Z,94.77
2023-04-18T02:10:08.940Z,94.67
2023-04-18T02:11:08.913Z,94.67
2023-04-18T02:12:08.899Z,94.67
2023-04-18T02:13:08.892Z,94.56
2023-04-18T02:14:08.892Z,94.56
2023-04-18T02:15:08.887Z,94.56
2023-04-18T02:16:08.908Z,94.67
2023-04-18T02:17:08.863Z,94.93
2023-04-18T02:18:08.842Z,95.03
2023-04-18T02:19:08.826Z,95.34
2023-04-18T02:20:08.829Z,94.82
2023-04-18T02:21:08.806Z,94.52
2023-04-18T02:22:08.881Z,94.72
2023-04-18T02:23:08.803Z,94.62
2023-04-18T02:24:08.769Z,94.21
2023-04-18T02:25:08.790Z,94.10
2023-04-18T02:26:08.738Z,94.31
2023-04-18T02:27:08.747Z,94.21
2023-04-18T02:28:08.729Z,93.90
2023-04-18T02:29:08.722Z,93.49
2023-04-18T02:30:08.718Z,93.69
2023-04-18T02:31:08.698Z,93.49
2023-04-18T02:32:08.722Z,93.44
2023-04-18T02:33:08.777Z,93.75
2023-04-18T02:34:08.686Z,93.96
2023-04-18T02:35:08.663Z,93.96
2023-04-18T02:36:08.652Z,93.34
2023-04-18T02:37:08.631Z,92.82
2023-04-18T02:38:08.638Z,92.61
2023-04-18T02:39:08.644Z,92.41
2023-04-18T02:40:08.629Z,92.41
2023-04-18T02:41:08.592Z,92.41
2023-04-18T02:42:08.572Z,92.31
2023-04-18T02:43:08.578Z,92.41
2023-04-18T02:44:08.560Z,92.31
2023-04-18T02:45:08.571Z,92.21
2023-04-18T02:46:08.586Z,92.31
2023-04-18T02:47:08.534Z,92.31
2023-04-18T02:48:08.563Z,92.41
2023-04-18T02:49:08.504Z,92.82
2023-04-18T02:50:08.870Z,93.03
2023-04-18T02:51:08.487Z,93.03
2023-04-18T02:52:08.505Z,92.93
2023-04-18T02:53:08.469Z,92.82
2023-04-18T02:54:08.476Z,92.93
2023-04-18T02:55:08.445Z,92.93
2023-04-18T02:56:08.435Z,92.51
2023-04-18T02:57:08.423Z,92.31
2023-04-18T02:58:08.407Z,92.41
2023-04-18T02:59:08.480Z,92.10
2023-04-18T03:00:08.387Z,92.31
2023-04-18T03:01:08.392Z,92.61
2023-04-18T03:02:08.421Z,92.61
2023-04-18T03:03:08.405Z,92.61
2023-04-18T03:04:08.358Z,92.72
2023-04-18T03:05:08.369Z,92.61
2023-04-18T03:06:08.324Z,92.82
2023-04-18T03:07:08.321Z,92.72
2023-04-18T03:08:08.316Z,92.61
2023-04-18T03:09:08.323Z,92.82
2023-04-18T03:10:08.304Z,92.82
2023-04-18T03:11:08.292Z,92.72
2023-04-18T03:12:08.308Z,92.93
2023-04-18T03:13:08.308Z,93.03
2023-04-18T03:14:08.240Z,93.03
2023-04-18T03:15:08.252Z,93.03
2023-04-18T03:16:08.266Z,93.24
2023-04-18T03:17:08.229Z,93.24
2023-04-18T03:18:08.337Z,93.13
2023-04-18T03:19:08.185Z,93.03
2023-04-18T03:20:08.220Z,93.24
2023-04-18T03:21:08.165Z,92.72
2023-04-18T03:22:08.164Z,92.51
2023-04-18T03:23:08.153Z,92.93
2023-04-18T03:24:08.855Z,92.82
2023-04-18T03:25:08.171Z,92.51
2023-04-18T03:26:08.127Z,92.31
2023-04-18T03:27:08.111Z,92.41
2023-04-18T03:28:08.090Z,92.93
2023-04-18T03:29:08.095Z,92.93
2023-04-18T03:30:08.095Z,92.61
2023-04-18T03:31:08.178Z,92.41
2023-04-18T03:32:08.003Z,92.31
2023-04-18T03:33:07.993Z,92.51
2023-04-18T03:34:08.032Z,92.41
2023-04-18T03:35:08.047Z,92.31
2023-04-18T03:36:08.005Z,92.21
2023-04-18T03:37:08.030Z,92.10
2023-04-18T03:38:07.973Z,92.10
2023-04-18T03:39:07.925Z,91.89
2023-04-18T03:40:07.932Z,91.69
2023-04-18T03:41:07.898Z,91.69
2023-04-18T03:42:07.985Z,91.69
2023-04-18T03:43:07.893Z,91.79
2023-04-18T03:44:07.900Z,91.89
2023-04-18T03:45:07.854Z,92.10
2023-04-18T03:46:07.973Z,92.00
2023-04-18T03:47:07.855Z,91.79
2023-04-18T03:48:07.838Z,91.58
2023-04-18T03:49:07.834Z,91.89
2023-04-18T03:50:07.820Z,91.79
2023-04-18T03:51:07.804Z,92.31
2023-04-18T03:52:07.786Z,92.72
2023-04-18T03:53:07.797Z,92.93
2023-04-18T03:54:07.769Z,92.72
2023-04-18T03:55:07.783Z,92.10
2023-04-18T03:56:07.745Z,92.21
2023-04-18T03:57:07.742Z,92.47
2023-04-18T03:58:07.734Z,92.37
2023-04-18T03:59:07.731Z,92.41
2023-04-18T04:00:07.707Z,91.85
2023-04-18T04:01:07.696Z,91.89
2023-04-18T04:02:07.859Z,91.96
2023-04-18T04:03:07.838Z,91.79
2023-04-18T04:04:07.733Z,91.69
2023-04-18T04:05:07.789Z,92.00
2023-04-18T04:06:07.653Z,92.00
2023-04-18T04:07:07.679Z,92.10
2023-04-18T04:08:07.645Z,92.41
2023-04-18T04:09:07.609Z,92.41
2023-04-18T04:10:07.596Z,92.00
2023-04-18T04:11:07.594Z,92.00
2023-04-18T04:12:07.625Z,92.31
2023-04-18T04:13:07.579Z,92.21
2023-04-18T04:14:07.582Z,92.21
2023-04-18T04:15:07.545Z,92.00
2023-04-18T04:16:07.577Z,92.31
2023-04-18T04:17:07.525Z,92.51
2023-04-18T04:18:07.538Z,92.61
2023-04-18T04:19:08.445Z,92.93
2023-04-18T04:20:07.700Z,92.41
2023-04-18T04:21:07.660Z,92.61
2023-04-18T04:22:07.586Z,92.82
2023-04-18T04:23:07.496Z,93.44
2023-04-18T04:24:07.518Z,93.34
2023-04-18T04:25:07.491Z,93.24
2023-04-18T04:26:07.473Z,93.07
2023-04-18T04:27:07.446Z,92.97
2023-04-18T04:28:07.421Z,93.18
2023-04-18T04:29:07.445Z,93.69
2023-04-18T04:30:07.408Z,93.49
2023-04-18T04:31:07.448Z,93.49
2023-04-18T04:32:07.436Z,94.00
2023-04-18T04:33:07.416Z,94.10
2023-04-18T04:34:07.369Z,94.21
2023-04-18T04:35:07.365Z,93.90
2023-04-18T04:36:07.327Z,93.79
2023-04-18T04:37:07.325Z,93.59
2023-04-18T04:38:07.333Z,92.86
2023-04-18T04:39:07.294Z,93.07
2023-04-18T04:40:07.276Z,93.28
2023-04-18T04:41:07.268Z,93.59
2023-04-18T04:42:07.262Z,93.38
2023-04-18T04:43:07.281Z,94.00
2023-04-18T04:44:07.247Z,93.69
2023-04-18T04:45:07.222Z,92.86
2023-04-18T04:46:07.247Z,93.07
2023-04-18T04:47:07.211Z,92.97
2023-04-18T04:48:07.259Z,92.66
2023-04-18T04:49:07.197Z,92.76
2023-04-18T04:50:07.180Z,92.86
2023-04-18T04:51:07.162Z,92.86
2023-04-18T04:52:07.154Z,92.76
2023-04-18T04:53:07.175Z,92.66
2023-04-18T04:54:07.139Z,92.66
2023-04-18T04:55:07.140Z,92.97
2023-04-18T04:56:07.154Z,92.97
2023-04-18T04:57:07.106Z,92.97
2023-04-18T04:58:07.148Z,93.07
2023-04-18T04:59:07.076Z,93.49
2023-04-18T05:00:07.067Z,93.79
2023-04-18T05:01:07.121Z,93.49
2023-04-18T05:02:07.139Z,93.49
2023-04-18T05:03:07.218Z,93.07
2023-04-18T05:04:07.119Z,93.18
2023-04-18T05:05:07.027Z,93.07
2023-04-18T05:06:07.006Z,92.97
2023-04-18T05:07:07.420Z,93.07
2023-04-18T05:08:07.038Z,93.18
2023-04-18T05:09:07.026Z,93.38
2023-04-18T05:10:06.960Z,93.59
2023-04-18T05:11:06.987Z,93.07
2023-04-18T05:12:06.948Z,92.97
2023-04-18T05:13:06.991Z,92.82
2023-04-18T05:14:06.920Z,92.72
2023-04-18T05:15:06.924Z,92.41
2023-04-18T05:16:06.934Z,92.31
2023-04-18T05:17:06.977Z,92.51
2023-04-18T05:18:06.901Z,91.79
2023-04-18T05:19:06.874Z,91.48
2023-04-18T05:20:06.857Z,91.38
2023-04-18T05:21:06.875Z,91.07
2023-04-18T05:22:06.858Z,91.48
2023-04-18T05:23:06.848Z,91.69
2023-04-18T05:24:06.844Z,91.89
2023-04-18T05:25:06.818Z,91.69
2023-04-18T05:26:06.813Z,91.64
2023-04-18T05:27:06.794Z,91.54
2023-04-18T05:28:06.786Z,91.54
2023-04-18T05:29:06.781Z,90.92
2023-04-18T05:30:06.749Z,90.92
2023-04-18T05:31:06.816Z,91.24
2023-04-18T05:32:06.774Z,90.82
2023-04-18T05:33:06.808Z,90.51
2023-04-18T05:34:06.719Z,90.92
2023-04-18T05:35:06.715Z,90.92
2023-04-18T05:36:06.735Z,90.82
2023-04-18T05:37:06.722Z,90.72
2023-04-18T05:38:06.718Z,90.61
2023-04-18T05:39:06.690Z,90.61
2023-04-18T05:40:06.659Z,90.31
2023-04-18T05:41:06.677Z,90.92
2023-04-18T05:42:06.662Z,91.34
2023-04-18T05:43:06.671Z,91.54
2023-04-18T05:44:06.647Z,91.30
2023-04-18T05:45:06.653Z,91.30
2023-04-18T05:46:06.666Z,92.12
2023-04-18T05:47:06.693Z,91.81
2023-04-18T05:48:06.608Z,91.66
2023-04-18T05:49:06.575Z,91.25
2023-04-18T05:50:06.578Z,89.77
2023-04-18T05:51:06.536Z,89.77
2023-04-18T05:52:06.562Z,90.14
2023-04-18T05:53:06.517Z,89.22
2023-04-18T05:54:06.513Z,88.49
2023-04-18T05:55:06.519Z,87.15
2023-04-18T05:56:06.478Z,87.15
2023-04-18T05:57:06.499Z,87.26
2023-04-18T05:58:06.460Z,87.05
2023-04-18T05:59:06.463Z,86.74
2023-04-18T06:00:06.449Z,86.91
2023-04-18T06:01:06.443Z,87.22
2023-04-18T06:02:06.517Z,87.73
2023-04-18T06:03:08.555Z,87.63
2023-04-18T06:04:06.534Z,87.84
2023-04-18T06:05:06.542Z,87.63
2023-04-18T06:06:06.386Z,87.12
2023-04-18T06:07:06.402Z,87.32
2023-04-18T06:08:06.355Z,86.91
2023-04-18T06:09:06.359Z,87.01
2023-04-18T06:10:06.341Z,87.22
2023-04-18T06:11:06.326Z,86.50
2023-04-18T06:12:06.350Z,86.08
2023-04-18T06:13:06.305Z,85.68
2023-04-18T06:14:06.291Z,85.36
2023-04-18T06:15:06.286Z,85.36
2023-04-18T06:16:06.291Z,85.47
2023-04-18T06:17:06.285Z,85.47
2023-04-18T06:18:06.286Z,85.57
2023-04-18T06:19:06.257Z,85.94
2023-04-18T06:20:06.271Z,85.43
2023-04-18T06:21:06.226Z,85.63
2023-04-18T06:22:06.221Z,85.22
2023-04-18T06:23:06.213Z,84.91
2023-04-18T06:24:06.192Z,85.02
2023-04-18T06:25:06.177Z,84.71
2023-04-18T06:26:06.168Z,84.61
2023-04-18T06:27:06.181Z,84.71
2023-04-18T06:28:06.145Z,84.56
2023-04-18T06:29:06.137Z,84.77
2023-04-18T06:30:06.131Z,84.77
2023-04-18T06:31:06.186Z,84.88
2023-04-18T06:32:06.124Z,85.18
2023-04-18T06:33:06.103Z,84.88
2023-04-18T06:34:06.107Z,84.77
2023-04-18T06:35:06.082Z,84.26
2023-04-18T06:36:06.074Z,84.26
2023-04-18T06:37:06.068Z,84.36
2023-04-18T06:38:06.044Z,84.16
2023-04-18T06:39:06.037Z,84.56
2023-04-18T06:40:06.040Z,84.61
2023-04-18T06:41:06.037Z,84.50
2023-04-18T06:42:06.018Z,84.61
2023-04-18T06:43:05.993Z,84.91
2023-04-18T06:44:05.981Z,85.22
2023-04-18T06:45:05.980Z,85.53
2023-04-18T06:46:06.174Z,85.22
2023-04-18T06:47:06.002Z,85.63
2023-04-18T06:48:06.001Z,85.63
2023-04-18T06:49:05.943Z,85.22
2023-04-18T06:50:05.940Z,84.91
2023-04-18T06:51:05.908Z,84.81
2023-04-18T06:52:05.964Z,84.61
2023-04-18T06:53:05.886Z,84.36
2023-04-18T06:54:05.920Z,84.16
2023-04-18T06:55:05.875Z,84.05
2023-04-18T06:56:05.870Z,84.26
2023-04-18T06:57:05.855Z,84.26
2023-04-18T06:58:05.840Z,84.16
2023-04-18T06:59:05.826Z,84.22
2023-04-18T07:00:05.828Z,84.12
2023-04-18T07:01:05.825Z,83.91
2023-04-18T07:02:05.807Z,83.91
2023-04-18T07:03:07.068Z,83.46
2023-04-18T07:04:05.909Z,83.26
2023-04-18T07:05:05.764Z,82.75
2023-04-18T07:06:05.755Z,82.75
2023-04-18T07:07:05.790Z,82.29
2023-04-18T07:08:05.760Z,82.40
2023-04-18T07:09:05.728Z,82.09
2023-04-18T07:10:05.705Z,82.09
2023-04-18T07:11:05.689Z,82.15
2023-04-18T07:12:05.700Z,81.64
2023-04-18T07:13:05.716Z,81.50
2023-04-18T07:14:05.686Z,81.09
2023-04-18T07:15:05.650Z,80.44
2023-04-18T07:16:05.650Z,79.38
2023-04-18T07:17:05.732Z,79.07
2023-04-18T07:18:05.694Z,79.24
2023-04-18T07:19:05.610Z,78.72
2023-04-18T07:20:05.635Z,77.94
2023-04-18T07:21:05.583Z,79.19
2023-04-18T07:22:05.593Z,75.10
2023-04-18T07:23:05.601Z,73.26
2023-04-18T07:24:05.635Z,70.10
2023-04-18T07:25:05.546Z,68.82
2023-04-18T07:26:05.569Z,67.33
2023-04-18T07:27:05.549Z,64.40
2023-04-18T07:28:05.525Z,62.59
2023-04-18T07:29:05.498Z,60.74
2023-04-18T07:30:05.495Z,59.16
2023-04-18T07:31:05.495Z,57.92
2023-04-18T07:32:06.887Z,57.59
2023-04-18T07:33:05.608Z,58.33
2023-04-18T07:34:05.455Z,59.19
2023-04-18T07:35:05.434Z,59.68
2023-04-18T07:36:05.450Z,61.90
2023-04-18T07:37:05.445Z,64.83
2023-04-18T07:38:05.420Z,66.00
2023-04-18T07:39:05.406Z,68.10
2023-04-18T07:40:05.400Z,69.46
2023-04-18T07:41:05.410Z,69.59
2023-04-18T07:42:05.407Z,69.93
2023-04-18T07:43:05.363Z,70.17
2023-04-18T07:44:05.449Z,71.53
2023-04-18T07:45:05.345Z,72.55
2023-04-18T07:46:05.367Z,72.79
2023-04-18T07:47:05.346Z,72.82
2023-04-18T07:48:05.347Z,73.33
2023-04-18T07:49:05.308Z,73.88
2023-04-18T07:50:05.293Z,74.73
2023-04-18T07:51:05.275Z,75.55
2023-04-18T07:52:05.279Z,75.65
2023-04-18T07:53:05.265Z,76.37
2023-04-18T07:54:05.267Z,76.20
2023-04-18T07:55:05.234Z,76.40
2023-04-18T07:56:05.232Z,76.71
2023-04-18T07:57:05.239Z,76.61
2023-04-18T07:58:05.219Z,77.15
2023-04-18T07:59:05.198Z,77.15
2023-04-18T08:00:05.232Z,77.97
2023-04-18T08:01:05.184Z,77.97
2023-04-18T08:02:05.253Z,77.97
2023-04-18T08:03:05.363Z,78.11
2023-04-18T08:04:05.312Z,78.31
2023-04-18T08:05:05.217Z,78.31
2023-04-18T08:06:05.143Z,78.42
2023-04-18T08:07:05.157Z,78.72
2023-04-18T08:08:05.130Z,78.63
2023-04-18T08:09:05.138Z,79.20
2023-04-18T08:10:05.093Z,79.20
2023-04-18T08:11:05.079Z,79.20
2023-04-18T08:12:05.098Z,78.59
2023-04-18T08:13:05.072Z,78.28
2023-04-18T08:14:05.042Z,78.17
2023-04-18T08:15:05.037Z,78.31
2023-04-18T08:16:05.056Z,78.63
2023-04-18T08:17:05.035Z,79.34
2023-04-18T08:18:05.071Z,79.34
2023-04-18T08:19:04.981Z,79.75
2023-04-18T08:20:04.994Z,79.54
2023-04-18T08:21:04.972Z,79.75
2023-04-18T08:22:04.970Z,79.85
2023-04-18T08:23:08.673Z,80.16
2023-04-18T08:24:04.935Z,79.96
2023-04-18T08:25:05.858Z,80.09
2023-04-18T08:26:04.925Z,80.16
2023-04-18T08:27:04.934Z,79.89
2023-04-18T08:28:04.902Z,79.89
2023-04-18T08:29:04.890Z,79.89
2023-04-18T08:30:04.912Z,79.79
2023-04-18T08:31:04.862Z,79.79
2023-04-18T08:32:04.907Z,79.68
2023-04-18T08:33:04.893Z,79.58
2023-04-18T08:34:05.291Z,79.89
2023-04-18T08:35:04.887Z,79.89
2023-04-18T08:36:04.814Z,80.09
2023-04-18T08:37:04.820Z,80.51
2023-04-18T08:38:04.814Z,80.60
2023-04-18T08:39:04.788Z,80.46
2023-04-18T08:40:04.766Z,80.09
2023-04-18T08:41:04.760Z,80.19
2023-04-18T08:42:04.772Z,80.30
2023-04-18T08:43:04.757Z,80.51
2023-04-18T08:44:04.735Z,80.60
2023-04-18T08:45:04.715Z,80.71
2023-04-18T08:46:04.740Z,80.51
2023-04-18T08:47:04.721Z,80.57
2023-04-18T08:48:04.772Z,80.36
2023-04-18T08:49:04.671Z,80.88
2023-04-18T08:50:04.686Z,80.57
2023-04-18T08:51:04.646Z,80.26
2023-04-18T08:52:04.664Z,80.05
2023-04-18T08:53:04.633Z,80.26
2023-04-18T08:54:04.716Z,80.36
2023-04-18T08:55:04.604Z,79.96
2023-04-18T08:56:04.603Z,80.05
2023-04-18T08:57:04.615Z,80.36
2023-04-18T08:58:04.582Z,81.45
2023-04-18T08:59:04.564Z,80.22
2023-04-18T09:00:04.558Z,79.91
2023-04-18T09:01:04.648Z,79.82
2023-04-18T09:02:04.592Z,79.47
2023-04-18T09:03:04.732Z,79.37
2023-04-18T09:04:04.593Z,78.99
2023-04-18T09:05:04.508Z,76.90
2023-04-18T09:06:04.493Z,75.54
2023-04-18T09:07:04.504Z,74.55
2023-04-18T09:08:04.476Z,73.60
2023-04-18T09:09:04.470Z,72.89
2023-04-18T09:10:04.455Z,72.75
2023-04-18T09:11:04.454Z,72.21
2023-04-18T09:12:04.445Z,72.11
2023-04-18T09:13:04.457Z,71.67
2023-04-18T09:14:04.412Z,70.86
2023-04-18T09:15:04.409Z,70.72
2023-04-18T09:16:04.392Z,69.90
2023-04-18T09:17:04.397Z,69.36
2023-04-18T09:18:04.444Z,69.29
2023-04-18T09:19:06.800Z,69.60
2023-04-18T09:20:04.349Z,69.77
2023-04-18T09:21:04.335Z,69.49
2023-04-18T09:22:04.351Z,69.46
2023-04-18T09:23:04.347Z,69.57
2023-04-18T09:24:04.320Z,69.26
2023-04-18T09:25:04.308Z,68.96
2023-04-18T09:26:04.313Z,69.36
2023-04-18T09:27:04.301Z,69.16
2023-04-18T09:28:04.267Z,69.16
2023-04-18T09:29:04.256Z,68.96
2023-04-18T09:30:04.265Z,69.67
2023-04-18T09:31:04.276Z,69.77
2023-04-18T09:32:04.260Z,69.57
2023-04-18T09:33:04.255Z,69.43
2023-04-18T09:34:04.214Z,69.64
2023-04-18T09:35:04.945Z,69.02
2023-04-18T09:36:04.192Z,69.94
2023-04-18T09:37:04.247Z,69.30
2023-04-18T09:38:04.197Z,68.52
2023-04-18T09:39:04.165Z,68.41
2023-04-18T09:40:04.196Z,68.52
2023-04-18T09:41:04.139Z,68.62
2023-04-18T09:42:04.144Z,69.30
2023-04-18T09:43:04.113Z,68.89
2023-04-18T09:44:04.116Z,68.49
2023-04-18T09:45:04.096Z,69.20
2023-04-18T09:46:04.136Z,69.09
2023-04-18T09:47:04.073Z,68.79
2023-04-18T09:48:04.104Z,68.79
2023-04-18T09:49:04.065Z,68.69
2023-04-18T09:50:04.049Z,68.99
2023-04-18T09:51:04.030Z,69.20
2023-04-18T09:52:04.054Z,69.09
2023-04-18T09:53:04.014Z,68.79
2023-04-18T09:54:03.998Z,68.89
2023-04-18T09:55:03.987Z,69.02
2023-04-18T09:56:03.981Z,69.33
2023-04-18T09:57:03.959Z,70.18
2023-04-18T09:58:03.994Z,70.28
2023-04-18T09:59:03.951Z,70.89
2023-04-18T10:00:03.965Z,70.89
2023-04-18T10:01:04.001Z,70.48
2023-04-18T10:02:04.013Z,71.30
2023-04-18T10:03:04.004Z,71.70
2023-04-18T10:04:03.991Z,70.04
2023-04-18T10:05:04.058Z,69.84
2023-04-18T10:06:03.942Z,69.53
2023-04-18T10:07:03.906Z,72.14
2023-04-18T10:08:03.887Z,72.14
2023-04-18T10:09:03.885Z,70.59
2023-04-18T10:10:03.830Z,70.96
2023-04-18T10:11:03.839Z,69.20
2023-04-18T10:12:03.897Z,70.32
2023-04-18T10:13:03.792Z,67.27
2023-04-18T10:14:03.782Z,67.27
2023-04-18T10:15:03.808Z,67.47
2023-04-18T10:16:03.846Z,67.58
2023-04-18T10:17:03.772Z,67.17
2023-04-18T10:18:06.247Z,68.29
2023-04-18T10:19:03.732Z,67.07
2023-04-18T10:20:03.888Z,67.47
2023-04-18T10:21:03.718Z,67.07
2023-04-18T10:22:03.710Z,67.38
2023-04-18T10:23:03.688Z,68.15
2023-04-18T10:24:03.681Z,67.03
2023-04-18T10:25:03.682Z,66.53
2023-04-18T10:26:03.668Z,66.23
2023-04-18T10:27:03.644Z,66.53
2023-04-18T10:28:03.654Z,66.43
2023-04-18T10:29:03.642Z,66.23
2023-04-18T10:30:03.634Z,66.53
2023-04-18T10:31:03.697Z,66.46
2023-04-18T10:32:03.609Z,67.07
2023-04-18T10:33:03.613Z,67.17
2023-04-18T10:34:05.738Z,67.58
2023-04-18T10:35:03.566Z,67.88
2023-04-18T10:36:03.583Z,67.07
2023-04-18T10:37:03.565Z,67.27
2023-04-18T10:38:03.541Z,67.38
2023-04-18T10:39:03.656Z,67.68
2023-04-18T10:40:03.538Z,68.29
2023-04-18T10:41:03.530Z,67.47
2023-04-18T10:42:03.491Z,67.27
2023-04-18T10:43:03.489Z,67.27
2023-04-18T10:44:03.469Z,67.47
2023-04-18T10:45:03.462Z,67.47
2023-04-18T10:46:03.472Z,68.08
2023-04-18T10:47:03.533Z,67.98
2023-04-18T10:48:03.510Z,67.78
2023-04-18T10:49:03.449Z,68.29
2023-04-18T10:50:05.967Z,67.95
2023-04-18T10:51:03.418Z,67.58
2023-04-18T10:52:03.405Z,67.88
2023-04-18T10:53:03.398Z,68.32
2023-04-18T10:54:03.383Z,68.32
2023-04-18T10:55:03.364Z,69.34
2023-04-18T10:56:03.399Z,69.03
2023-04-18T10:57:03.350Z,69.60
2023-04-18T10:58:03.337Z,68.70
2023-04-18T10:59:03.321Z,69.68
2023-04-18T11:00:03.305Z,68.56
2023-04-18T11:01:03.388Z,67.44
2023-04-18T11:02:03.302Z,67.24
2023-04-18T11:03:03.493Z,66.70
2023-04-18T11:04:03.336Z,66.94
2023-04-18T11:05:03.276Z,67.03
2023-04-18T11:06:03.277Z,66.83
2023-04-18T11:07:03.249Z,67.24
2023-04-18T11:08:03.219Z,67.14
2023-04-18T11:09:03.218Z,67.27
2023-04-18T11:10:03.204Z,67.27
2023-04-18T11:11:03.245Z,67.47
2023-04-18T11:12:03.176Z,67.47
2023-04-18T11:13:03.180Z,67.68
2023-04-18T11:14:03.498Z,67.78
2023-04-18T11:15:03.169Z,67.65
2023-04-18T11:16:03.166Z,67.34
2023-04-18T11:17:03.132Z,67.24
2023-04-18T11:18:03.186Z,67.14
2023-04-18T11:19:03.151Z,67.03
2023-04-18T11:20:03.117Z,67.24
2023-04-18T11:21:03.153Z,67.44
2023-04-18T11:22:03.084Z,67.34
2023-04-18T11:23:03.072Z,67.14
2023-04-18T11:24:03.064Z,66.94
2023-04-18T11:25:03.056Z,67.34
2023-04-18T11:26:03.055Z,67.24
2023-04-18T11:27:03.034Z,67.03
2023-04-18T11:28:03.010Z,67.55
2023-04-18T11:29:03.036Z,67.24
2023-04-18T11:30:03.008Z,67.34
2023-04-18T11:31:03.049Z,67.55
2023-04-18T11:32:03.036Z,67.55
2023-04-18T11:33:03.039Z,67.47
2023-04-18T11:34:02.949Z,67.78
2023-04-18T11:35:02.950Z,67.78
2023-04-18T11:36:02.945Z,69.20
2023-04-18T11:37:02.963Z,69.10
2023-04-18T11:38:02.907Z,69.13
2023-04-18T11:39:02.917Z,70.25
2023-04-18T11:40:02.906Z,70.55
2023-04-18T11:41:02.950Z,71.13
2023-04-18T11:42:02.898Z,71.30
2023-04-18T11:43:02.890Z,71.09
2023-04-18T11:44:02.852Z,70.65
2023-04-18T11:45:02.942Z,69.03
2023-04-18T11:46:03.000Z,68.70
2023-04-18T11:47:02.824Z,67.68
2023-04-18T11:48:02.858Z,69.10
2023-04-18T11:49:02.802Z,69.48
2023-04-18T11:50:02.796Z,69.68
2023-04-18T11:51:02.792Z,67.72
2023-04-18T11:52:02.773Z,66.91
2023-04-18T11:53:02.753Z,66.41
2023-04-18T11:54:02.750Z,67.62
2023-04-18T11:55:02.746Z,66.38
2023-04-18T11:56:02.745Z,65.43
2023-04-18T11:57:02.712Z,65.43
2023-04-18T11:58:02.707Z,64.55
2023-04-18T11:59:02.698Z,64.86
2023-04-18T12:00:02.686Z,65.77
2023-04-18T12:01:02.692Z,65.59
2023-04-18T12:02:15.345Z,65.70
2023-04-18T12:03:02.939Z,66.81
2023-04-18T12:04:03.140Z,66.64
2023-04-18T12:05:02.921Z,67.25
2023-04-18T12:06:02.737Z,66.94
2023-04-18T12:07:02.646Z,67.48
2023-04-18T12:08:02.602Z,67.58
2023-04-18T12:09:02.600Z,67.89
2023-04-18T12:10:02.577Z,68.23
2023-04-18T12:11:02.595Z,68.32
2023-04-18T12:12:02.564Z,68.23
2023-04-18T12:13:02.545Z,68.52
2023-04-18T12:14:03.994Z,68.87
2023-04-18T12:15:02.586Z,69.07
2023-04-18T12:16:02.602Z,69.27
2023-04-18T12:17:02.517Z,69.71
2023-04-18T12:18:02.584Z,69.57
2023-04-18T12:19:02.490Z,70.28
2023-04-18T12:20:02.513Z,69.27
2023-04-18T12:21:02.486Z,69.37
2023-04-18T12:22:02.447Z,69.88
2023-04-18T12:23:02.452Z,69.88
2023-04-18T12:24:02.435Z,69.78
2023-04-18T12:25:02.450Z,69.57
2023-04-18T12:26:02.420Z,69.37
2023-04-18T12:27:02.421Z,69.37
2023-04-18T12:28:02.382Z,69.98
2023-04-18T12:29:02.386Z,69.57
2023-04-18T12:30:02.406Z,70.08
2023-04-18T12:31:02.471Z,69.98
2023-04-18T12:32:02.385Z,69.78
2023-04-18T12:33:02.364Z,69.68
2023-04-18T12:34:02.318Z,70.08
2023-04-18T12:35:02.330Z,70.18
2023-04-18T12:36:02.307Z,69.98
2023-04-18T12:37:02.292Z,70.48
2023-04-18T12:38:02.304Z,70.39
2023-04-18T12:39:02.275Z,70.18
2023-04-18T12:40:02.270Z,70.32
2023-04-18T12:41:02.300Z,70.42
2023-04-18T12:42:02.257Z,70.72
2023-04-18T12:43:03.767Z,70.52
2023-04-18T12:44:02.258Z,70.96
2023-04-18T12:45:02.230Z,71.26
2023-04-18T12:46:02.240Z,71.36
2023-04-18T12:47:02.296Z,71.47
2023-04-18T12:48:02.262Z,71.77
2023-04-18T12:49:02.162Z,71.67
2023-04-18T12:50:02.237Z,71.88
2023-04-18T12:51:02.172Z,71.77
2023-04-18T12:52:02.143Z,71.97